createdAt,value
2018-03-08T00:01:12.269Z,7.00
2018-03-08T00:03:39.777Z,7.00
2018-03-08T00:06:07.260Z,6.90
2018-03-08T00:08:34.757Z,6.90
2018-03-08T00:11:02.245Z,6.90
2018-03-08T00:13:29.749Z,7.00
2018-03-08T00:15:57.232Z,6.90
2018-03-08T00:18:24.740Z,6.90
2018-03-08T00:20:52.229Z,6.90
2018-03-08T00:23:20.628Z,6.90
2018-03-08T00:25:48.141Z,7.00
2018-03-08T00:28:15.633Z,7.00
2018-03-08T00:30:43.905Z,6.90
2018-03-08T00:33:11.397Z,6.90
2018-03-08T00:35:38.932Z,6.90
2018-03-08T00:38:16.280Z,6.80
2018-03-08T00:40:43.799Z,6.70
2018-03-08T00:43:11.293Z,6.80
2018-03-08T00:45:39.557Z,6.80
2018-03-08T00:53:53.581Z,6.60
2018-03-08T00:56:21.095Z,6.50
2018-03-08T00:58:48.578Z,6.50
2018-03-08T01:01:16.084Z,6.60
2018-03-08T01:03:43.564Z,6.70
2018-03-08T01:06:11.068Z,6.50
2018-03-08T01:08:39.321Z,6.50
2018-03-08T01:11:06.837Z,6.40
2018-03-08T01:13:34.317Z,6.50
2018-03-08T01:16:01.808Z,6.40
2018-03-08T01:18:30.077Z,6.30
2018-03-08T01:20:57.556Z,6.20
2018-03-08T01:23:25.057Z,6.40
2018-03-08T01:25:52.539Z,6.40
2018-03-08T01:28:20.052Z,6.30
2018-03-08T01:30:47.544Z,6.10
2018-03-08T01:33:35.544Z,6.10
2018-03-08T01:36:03.796Z,6.00
2018-03-08T01:38:31.299Z,5.90
2018-03-08T01:40:58.784Z,6.00
2018-03-08T01:43:27.056Z,6.00
2018-03-08T01:45:54.541Z,5.90
2018-03-08T01:48:22.813Z,5.90
2018-03-08T01:50:50.296Z,5.80
2018-03-08T01:53:18.576Z,5.70
2018-03-08T01:55:46.064Z,5.70
2018-03-08T01:58:14.317Z,5.80
2018-03-08T02:00:42.800Z,5.80
2018-03-08T02:03:10.293Z,5.80
2018-03-08T02:05:37.801Z,5.80
2018-03-08T02:08:05.280Z,5.60
2018-03-08T02:10:32.781Z,5.60
2018-03-08T02:13:00.265Z,5.60
2018-03-08T02:15:27.772Z,5.60
2018-03-08T02:17:55.260Z,5.60
2018-03-08T02:20:22.765Z,5.60
2018-03-08T02:22:50.257Z,5.50
2018-03-08T02:25:17.768Z,5.50
2018-03-08T02:27:57.707Z,5.50
2018-03-08T02:30:29.442Z,5.30
2018-03-08T02:32:56.941Z,5.30
2018-03-08T02:35:25.196Z,5.20
2018-03-08T02:37:52.705Z,5.20
2018-03-08T02:40:20.191Z,5.20
2018-03-08T02:42:47.694Z,5.30
2018-03-08T02:45:15.180Z,5.30
2018-03-08T02:47:42.684Z,5.20
2018-03-08T02:50:10.180Z,5.30
2018-03-08T02:52:37.685Z,5.20
2018-03-08T02:55:05.167Z,5.10
2018-03-08T02:57:32.671Z,5.30
2018-03-08T03:00:00.924Z,5.10
2018-03-08T03:02:28.443Z,5.10
2018-03-08T03:04:55.924Z,5.20
2018-03-08T03:07:23.433Z,5.10
2018-03-08T03:09:50.978Z,5.00
2018-03-08T03:12:19.175Z,5.00
2018-03-08T03:15:00.091Z,5.00
2018-03-08T03:17:27.615Z,5.00
2018-03-08T03:19:55.096Z,5.00
2018-03-08T03:22:22.579Z,5.00
2018-03-08T03:24:50.079Z,4.90
2018-03-08T03:27:18.345Z,4.90
2018-03-08T03:29:45.851Z,4.90
2018-03-08T03:32:14.096Z,4.80
2018-03-08T03:34:41.617Z,4.80
2018-03-08T03:37:09.099Z,4.90
2018-03-08T03:39:36.595Z,4.80
2018-03-08T03:42:04.083Z,5.00
2018-03-08T03:44:31.583Z,5.00
2018-03-08T03:46:59.827Z,5.00
2018-03-08T03:49:27.327Z,5.00
2018-03-08T03:51:54.808Z,5.00
2018-03-08T03:54:23.079Z,5.00
2018-03-08T03:56:51.540Z,4.90
2018-03-08T03:59:19.040Z,5.00
2018-03-08T04:01:46.516Z,4.90
2018-03-08T04:04:14.004Z,4.90
2018-03-08T04:06:42.264Z,4.90
2018-03-08T04:09:09.756Z,4.90
2018-03-08T04:11:38.028Z,4.90
2018-03-08T04:14:05.523Z,4.90
2018-03-08T04:16:33.787Z,4.90
2018-03-08T04:19:01.272Z,4.90
2018-03-08T04:21:29.539Z,4.90
2018-03-08T04:23:57.016Z,4.90
2018-03-08T04:26:24.528Z,4.90
2018-03-08T04:28:52.008Z,4.80
2018-03-08T04:31:19.520Z,4.90
2018-03-08T04:33:46.992Z,4.90
2018-03-08T04:36:14.471Z,4.80
2018-03-08T04:38:41.972Z,4.80
2018-03-08T04:41:09.455Z,4.80
2018-03-08T04:43:37.715Z,4.80
2018-03-08T04:46:05.964Z,4.70
2018-03-08T04:48:33.472Z,4.70
2018-03-08T04:51:01.716Z,4.80
2018-03-08T04:53:29.249Z,4.70
2018-03-08T04:55:57.483Z,4.70
2018-03-08T04:58:24.992Z,4.70
2018-03-08T05:00:53.257Z,4.60
2018-03-08T05:03:20.755Z,4.60
2018-03-08T05:05:48.251Z,4.70
2018-03-08T05:08:15.752Z,4.80
2018-03-08T05:10:43.236Z,4.80
2018-03-08T05:13:10.740Z,4.90
2018-03-08T05:15:38.220Z,4.90
2018-03-08T05:18:05.724Z,5.00
2018-03-08T05:20:33.204Z,5.10
2018-03-08T05:23:00.710Z,5.10
2018-03-08T05:25:28.964Z,5.10
2018-03-08T05:27:56.467Z,5.10
2018-03-08T05:30:24.713Z,5.10
2018-03-08T05:32:52.208Z,5.10
2018-03-08T05:35:19.715Z,5.10
2018-03-08T05:37:47.199Z,5.10
2018-03-08T05:40:14.709Z,5.20
2018-03-08T05:42:42.198Z,5.30
2018-03-08T05:45:10.471Z,5.30
2018-03-08T05:47:37.950Z,5.30
2018-03-08T05:50:05.459Z,5.20
2018-03-08T05:52:32.945Z,5.20
2018-03-08T05:55:00.451Z,5.20
2018-03-08T05:57:27.946Z,5.20
2018-03-08T05:59:56.211Z,5.30
2018-03-08T06:02:23.700Z,5.20
2018-03-08T06:04:51.967Z,5.20
2018-03-08T06:07:19.461Z,5.20
2018-03-08T06:09:47.728Z,5.40
2018-03-08T06:12:15.219Z,5.30
2018-03-08T06:14:51.011Z,5.40
2018-03-08T06:17:18.501Z,5.40
2018-03-08T06:19:46.004Z,5.40
2018-03-08T06:22:13.486Z,5.40
2018-03-08T06:24:41.755Z,5.50
2018-03-08T06:27:09.245Z,5.50
2018-03-08T06:29:37.492Z,5.50
2018-03-08T06:32:21.323Z,5.40
2018-03-08T06:34:48.856Z,5.60
2018-03-08T06:37:17.100Z,5.50
2018-03-08T06:40:01.003Z,5.50
2018-03-08T06:42:29.256Z,5.40
2018-03-08T06:44:56.768Z,5.40
2018-03-08T06:47:25.022Z,5.50
2018-03-08T06:49:52.504Z,5.40
2018-03-08T06:52:20.004Z,5.50
2018-03-08T06:54:47.489Z,5.50
2018-03-08T06:57:14.992Z,5.60
2018-03-08T06:59:48.508Z,5.80
2018-03-08T07:02:16.224Z,5.70
2018-03-08T07:04:43.716Z,5.70
2018-03-08T07:07:11.211Z,5.80
2018-03-08T07:09:38.687Z,5.90
2018-03-08T07:12:06.188Z,5.90
2018-03-08T07:14:33.668Z,5.80
2018-03-08T07:17:01.928Z,6.10
2018-03-08T07:19:29.412Z,6.10
2018-03-08T07:21:56.912Z,6.30
2018-03-08T07:24:24.391Z,6.40
2018-03-08T07:26:51.879Z,6.60
2018-03-08T07:29:19.351Z,6.60
2018-03-08T07:31:46.844Z,6.70
2018-03-08T07:34:14.324Z,6.60
2018-03-08T07:36:41.827Z,6.60
2018-03-08T07:39:09.306Z,6.60
2018-03-08T07:41:36.815Z,6.60
2018-03-08T07:44:04.292Z,6.60
2018-03-08T07:46:31.759Z,6.80
2018-03-08T07:48:59.255Z,6.90
2018-03-08T07:51:26.724Z,7.10
2018-03-08T07:53:54.221Z,7.00
2018-03-08T07:56:21.705Z,6.90
2018-03-08T07:58:49.208Z,6.90
2018-03-08T08:01:16.690Z,6.90
2018-03-08T08:03:44.200Z,6.80
2018-03-08T08:06:23.444Z,6.80
2018-03-08T08:09:03.761Z,6.70
2018-03-08T08:11:31.235Z,6.60
2018-03-08T08:13:58.732Z,6.70
2018-03-08T08:16:26.220Z,6.60
2018-03-08T08:18:54.485Z,6.50
2018-03-08T08:21:21.964Z,6.40
2018-03-08T08:23:49.470Z,6.50
2018-03-08T08:26:16.956Z,6.60
2018-03-08T08:28:44.528Z,6.70
2018-03-08T08:31:12.052Z,6.70
2018-03-08T08:33:40.328Z,6.60
2018-03-08T08:36:28.088Z,6.50
2018-03-08T08:38:56.364Z,6.70
2018-03-08T08:41:23.851Z,6.70
2018-03-08T08:43:52.095Z,6.80
2018-03-08T08:49:12.794Z,6.80
2018-03-08T08:51:40.275Z,6.80
2018-03-08T08:54:07.752Z,6.90
2018-03-08T08:56:35.248Z,6.90
2018-03-08T08:59:02.724Z,7.00
2018-03-08T09:01:30.224Z,7.20
2018-03-08T09:03:58.477Z,7.30
2018-03-08T09:06:26.000Z,7.20
2018-03-08T09:08:53.476Z,7.30
2018-03-08T09:11:20.979Z,7.40
2018-03-08T09:13:48.454Z,7.40
2018-03-08T09:16:23.680Z,7.40
2018-03-08T09:18:51.459Z,7.40
2018-03-08T09:21:18.968Z,7.30
2018-03-08T09:23:46.447Z,7.30
2018-03-08T09:26:13.946Z,7.40
2018-03-08T09:28:42.192Z,7.40
2018-03-08T09:31:09.671Z,7.30
2018-03-08T09:33:37.171Z,7.50
2018-03-08T09:36:05.415Z,7.60
2018-03-08T09:38:32.907Z,7.60
2018-03-08T09:41:00.389Z,7.70
2018-03-08T09:43:28.655Z,8.00
2018-03-08T09:45:56.137Z,8.00
2018-03-08T09:48:23.636Z,8.10
2018-03-08T09:50:51.183Z,8.30
2018-03-08T09:53:18.683Z,8.40
2018-03-08T09:58:29.872Z,8.50
2018-03-08T10:00:57.351Z,8.50
2018-03-08T10:03:25.623Z,8.40
2018-03-08T10:05:53.096Z,8.30
2018-03-08T10:08:20.610Z,8.40
2018-03-08T10:10:48.089Z,8.40
2018-03-08T10:13:15.564Z,8.30
2018-03-08T10:15:43.060Z,8.20
2018-03-08T10:18:30.328Z,8.00
2018-03-08T10:20:58.592Z,8.10
2018-03-08T10:23:26.059Z,8.00
2018-03-08T10:25:53.552Z,8.00
2018-03-08T10:28:21.796Z,8.30
2018-03-08T10:30:49.298Z,8.20
2018-03-08T10:33:16.787Z,8.30
2018-03-08T10:35:45.044Z,8.40
2018-03-08T10:38:12.561Z,8.40
2018-03-08T10:43:07.567Z,8.30
2018-03-08T10:45:35.064Z,8.20
2018-03-08T10:48:03.311Z,8.20
2018-03-08T10:50:30.810Z,8.20
2018-03-08T10:52:59.056Z,8.20
2018-03-08T10:55:26.532Z,8.20
2018-03-08T10:57:54.023Z,8.20
2018-03-08T11:00:27.247Z,8.20
2018-03-08T11:02:57.072Z,8.30
2018-03-08T11:05:25.319Z,8.30
2018-03-08T11:07:52.810Z,8.30
2018-03-08T11:10:20.279Z,8.30
2018-03-08T11:12:47.771Z,8.40
2018-03-08T11:15:16.012Z,8.30
2018-03-08T11:17:43.508Z,8.30
2018-03-08T11:20:10.992Z,8.50
2018-03-08T11:22:39.252Z,9.00
2018-03-08T11:25:06.724Z,8.90
2018-03-08T11:27:34.219Z,9.10
2018-03-08T11:30:02.474Z,9.10
2018-03-08T11:32:29.986Z,9.10
2018-03-08T11:34:57.465Z,9.10
2018-03-08T11:37:24.940Z,9.10
2018-03-08T11:39:52.435Z,9.10
2018-03-08T11:42:19.912Z,9.20
2018-03-08T11:44:47.403Z,9.40
2018-03-08T11:47:14.887Z,9.40
2018-03-08T11:49:42.384Z,9.40
2018-03-08T11:52:09.864Z,9.40
2018-03-08T11:54:37.405Z,9.40
2018-03-08T11:57:04.855Z,9.50
2018-03-08T11:59:32.360Z,9.70
2018-03-08T12:02:00.608Z,9.70
2018-03-08T12:04:28.116Z,9.60
2018-03-08T12:06:56.358Z,9.80
2018-03-08T12:09:23.838Z,9.70
2018-03-08T12:11:51.340Z,9.80
2018-03-08T12:14:19.587Z,9.80
2018-03-08T12:16:47.095Z,9.70
2018-03-08T12:19:15.348Z,10.00
2018-03-08T12:21:42.844Z,9.90
2018-03-08T12:24:10.328Z,10.10
2018-03-08T12:26:38.591Z,10.40
2018-03-08T12:29:06.070Z,10.40
2018-03-08T12:31:33.569Z,10.50
2018-03-08T12:34:01.048Z,10.40
2018-03-08T12:36:30.429Z,10.50
2018-03-08T12:38:58.680Z,10.30
2018-03-08T12:41:26.182Z,10.20
2018-03-08T12:43:53.668Z,10.10
2018-03-08T12:46:21.948Z,10.10
2018-03-08T12:48:50.248Z,10.30
2018-03-08T12:51:17.693Z,10.30
2018-03-08T12:53:45.191Z,10.50
2018-03-08T12:56:13.432Z,10.80
2018-03-08T12:58:40.932Z,10.70
2018-03-08T13:01:09.180Z,10.90
2018-03-08T13:03:36.680Z,10.90
2018-03-08T13:06:04.156Z,11.00
2018-03-08T13:08:31.656Z,11.00
2018-03-08T13:10:59.131Z,11.00
2018-03-08T13:13:26.632Z,11.00
2018-03-08T13:15:54.116Z,10.90
2018-03-08T13:18:21.615Z,10.90
2018-03-08T13:20:49.859Z,10.90
2018-03-08T13:23:17.356Z,10.80
2018-03-08T13:25:44.839Z,10.90
2018-03-08T13:28:13.120Z,10.90
2018-03-08T13:30:40.612Z,10.80
2018-03-08T13:33:08.857Z,10.90
2018-03-08T13:35:36.359Z,10.80
2018-03-08T13:38:04.605Z,10.80
2018-03-08T13:40:32.104Z,10.80
2018-03-08T13:42:59.588Z,10.80
2018-03-08T13:45:27.856Z,10.80
2018-03-08T13:47:55.340Z,10.80
2018-03-08T13:50:23.607Z,11.00
2018-03-08T13:52:51.083Z,11.00
2018-03-08T13:55:18.584Z,11.20
2018-03-08T13:57:46.844Z,11.20
2018-03-08T14:00:14.343Z,11.20
2018-03-08T14:02:42.592Z,11.10
2018-03-08T14:05:10.095Z,11.10
2018-03-08T14:07:38.340Z,11.00
2018-03-08T14:10:05.849Z,10.90
2018-03-08T14:12:34.148Z,10.80
2018-03-08T14:15:01.591Z,10.70
2018-03-08T14:17:29.104Z,10.70
2018-03-08T14:19:56.594Z,10.70
2018-03-08T14:22:24.100Z,10.70
2018-03-08T14:24:51.580Z,10.70
2018-03-08T14:27:19.848Z,10.70
2018-03-08T14:29:47.324Z,10.60
2018-03-08T14:32:14.832Z,10.70
2018-03-08T14:34:42.316Z,10.60
2018-03-08T14:39:43.442Z,10.70
2018-03-08T14:42:10.979Z,10.60
2018-03-08T14:44:38.452Z,10.60
2018-03-08T14:47:05.951Z,10.60
2018-03-08T14:49:33.441Z,10.60
2018-03-08T14:52:00.948Z,10.60
2018-03-08T14:54:28.432Z,10.60
2018-03-08T14:56:55.907Z,10.60
2018-03-08T14:59:23.411Z,10.70
2018-03-08T15:01:50.896Z,10.70
2018-03-08T15:04:19.163Z,10.90
2018-03-08T15:06:46.648Z,10.90
2018-03-08T15:09:14.148Z,10.90
2018-03-08T15:11:41.628Z,10.90
2018-03-08T15:14:09.132Z,10.90
2018-03-08T15:16:36.608Z,10.90
2018-03-08T15:19:04.113Z,10.90
2018-03-08T15:21:32.363Z,11.00
2018-03-08T15:23:59.868Z,10.90
2018-03-08T15:26:28.116Z,10.90
2018-03-08T15:28:55.615Z,10.80
2018-03-08T15:31:23.096Z,10.90
2018-03-08T15:33:51.343Z,10.90
2018-03-08T15:36:18.848Z,10.80
2018-03-08T15:38:47.096Z,10.90
2018-03-08T15:41:14.607Z,10.90
2018-03-08T15:43:42.860Z,10.90
2018-03-08T15:46:10.365Z,10.80
2018-03-08T15:48:38.616Z,10.80
2018-03-08T15:51:06.121Z,10.80
2018-03-08T15:53:33.608Z,10.80
2018-03-08T15:56:01.884Z,10.80
2018-03-08T15:58:33.464Z,10.80
2018-03-08T16:01:01.740Z,10.90
2018-03-08T16:03:29.992Z,10.90
2018-03-08T16:05:57.558Z,10.80
2018-03-08T16:08:36.785Z,10.80
2018-03-08T16:11:04.292Z,10.80
2018-03-08T16:13:31.780Z,10.80
2018-03-08T16:15:59.264Z,10.80
2018-03-08T16:18:27.591Z,10.80
2018-03-08T16:20:55.804Z,10.80
2018-03-08T16:23:23.316Z,10.80
2018-03-08T16:25:50.796Z,10.80
2018-03-08T16:28:18.296Z,10.80
2018-03-08T16:30:45.781Z,10.80
2018-03-08T16:33:13.283Z,10.80
2018-03-08T16:35:41.532Z,10.80
2018-03-08T16:38:09.036Z,10.80
2018-03-08T16:40:36.516Z,10.80
2018-03-08T16:43:04.783Z,10.80
2018-03-08T16:45:32.276Z,10.70
2018-03-08T16:48:00.544Z,10.80
2018-03-08T16:50:28.046Z,10.70
2018-03-08T16:52:55.533Z,10.80
2018-03-08T16:55:23.032Z,10.80
2018-03-08T16:57:50.569Z,10.80
2018-03-08T17:00:18.090Z,10.80
2018-03-08T17:02:45.539Z,10.80
2018-03-08T17:05:13.046Z,10.80
2018-03-08T17:07:40.570Z,10.80
2018-03-08T17:10:08.061Z,10.80
2018-03-08T17:12:35.602Z,10.80
2018-03-08T17:15:03.120Z,10.80
2018-03-08T17:17:30.607Z,10.80
2018-03-08T17:19:58.884Z,10.80
2018-03-08T17:22:26.373Z,10.80
2018-03-08T17:24:53.869Z,10.80
2018-03-08T17:27:21.380Z,10.80
2018-03-08T17:29:48.868Z,10.80
2018-03-08T17:32:17.137Z,10.80
2018-03-08T17:34:44.624Z,10.70
2018-03-08T17:37:12.132Z,10.80
2018-03-08T17:39:39.616Z,10.80
2018-03-08T17:42:07.126Z,10.80
2018-03-08T17:44:34.612Z,10.80
2018-03-08T17:47:02.880Z,10.80
2018-03-08T17:49:30.367Z,10.80
2018-03-08T17:51:57.873Z,10.80
2018-03-08T17:54:25.369Z,10.80
2018-03-08T17:56:52.885Z,10.80
2018-03-08T17:59:20.384Z,10.80
2018-03-08T18:01:48.643Z,10.80
2018-03-08T18:04:16.916Z,10.80
2018-03-08T18:06:44.403Z,10.70
2018-03-08T18:09:12.673Z,10.80
2018-03-08T18:11:40.164Z,10.80
2018-03-08T18:14:08.432Z,10.90
2018-03-08T18:16:35.917Z,10.80
2018-03-08T18:19:04.189Z,11.00
2018-03-08T18:21:31.668Z,10.90
2018-03-08T18:24:00.086Z,11.00
2018-03-08T18:26:27.605Z,10.90
2018-03-08T18:28:55.122Z,11.00
2018-03-08T18:31:22.604Z,10.70
2018-03-08T18:33:50.112Z,10.20
2018-03-08T18:36:17.591Z,10.00
2018-03-08T18:41:18.097Z,9.60
2018-03-08T18:43:45.604Z,9.40
2018-03-08T18:46:13.076Z,9.00
2018-03-08T18:48:40.556Z,8.80
2018-03-08T18:51:08.056Z,8.70
2018-03-08T18:53:35.539Z,8.60
2018-03-08T18:56:03.807Z,8.30
2018-03-08T18:58:31.284Z,8.30
2018-03-08T19:00:58.892Z,8.30
2018-03-08T19:03:26.385Z,8.30
2018-03-08T19:05:53.884Z,8.20
2018-03-08T19:08:21.416Z,8.20
2018-03-08T19:10:49.652Z,8.20
2018-03-08T19:13:17.140Z,8.10
2018-03-08T19:15:45.421Z,8.20
2018-03-08T19:18:13.671Z,8.20
2018-03-08T19:20:41.169Z,8.10
2018-03-08T19:23:08.657Z,8.20
2018-03-08T19:25:36.931Z,8.10
2018-03-08T19:28:04.422Z,8.00
2018-03-08T19:30:32.689Z,8.00
2018-03-08T19:33:00.169Z,7.90
2018-03-08T19:35:27.653Z,7.90
2018-03-08T19:37:55.928Z,7.80
2018-03-08T19:40:24.183Z,7.80
2018-03-08T19:42:51.684Z,7.70
2018-03-08T19:45:19.958Z,7.60
2018-03-08T19:47:47.465Z,7.60
2018-03-08T19:50:14.944Z,7.50
2018-03-08T19:52:42.444Z,7.60
2018-03-08T19:55:09.965Z,7.60
2018-03-08T19:57:37.630Z,7.30
2018-03-08T20:00:05.145Z,7.40
2018-03-08T20:02:32.647Z,7.30
2018-03-08T20:05:00.132Z,7.20
2018-03-08T20:07:27.628Z,7.20
2018-03-08T20:09:55.112Z,7.20
2018-03-08T20:12:22.714Z,7.20
2018-03-08T20:14:50.261Z,7.10
2018-03-08T20:17:18.696Z,7.00
2018-03-08T20:19:46.966Z,6.80
2018-03-08T20:22:14.453Z,6.70
2018-03-08T20:24:42.934Z,6.90
2018-03-08T20:27:10.418Z,6.80
2018-03-08T20:29:37.965Z,6.70
2018-03-08T20:32:05.452Z,6.60
2018-03-08T20:34:32.952Z,6.60
2018-03-08T20:37:01.209Z,6.40
2018-03-08T20:39:28.762Z,6.40
2018-03-08T20:41:56.277Z,6.30
2018-03-08T20:44:24.548Z,6.50
2018-03-08T20:46:52.036Z,6.40
2018-03-08T20:49:20.296Z,6.50
2018-03-08T20:51:47.773Z,6.40
2018-03-08T20:54:15.275Z,6.50
2018-03-08T20:56:43.529Z,6.70
2018-03-08T20:59:11.039Z,6.60
2018-03-08T21:01:38.523Z,6.70
2018-03-08T21:04:06.024Z,6.70
2018-03-08T21:06:33.731Z,6.70
2018-03-08T21:09:01.225Z,6.70
2018-03-08T21:11:29.506Z,6.60
2018-03-08T21:13:57.767Z,6.60
2018-03-08T21:16:25.272Z,6.50
2018-03-08T21:18:52.752Z,6.70
2018-03-08T21:21:20.248Z,6.70
2018-03-08T21:23:47.731Z,6.70
2018-03-08T21:26:15.232Z,6.70
2018-03-08T21:28:43.482Z,6.60
2018-03-08T21:31:10.979Z,6.60
2018-03-08T21:33:38.464Z,6.60
2018-03-08T21:36:06.741Z,6.60
2018-03-08T21:38:34.223Z,6.50
2018-03-08T21:41:02.500Z,6.60
2018-03-08T21:43:29.982Z,6.50
2018-03-08T21:45:58.256Z,6.60
2018-03-08T21:48:25.746Z,6.60
2018-03-08T21:50:54.041Z,6.70
2018-03-08T21:53:22.279Z,6.70
2018-03-08T21:55:49.760Z,6.60
2018-03-08T21:58:17.256Z,6.60
2018-03-08T22:00:45.506Z,6.60
2018-03-08T22:03:13.007Z,6.50
2018-03-08T22:05:40.484Z,6.60
2018-03-08T22:08:08.753Z,6.60
2018-03-08T22:10:36.232Z,6.50
2018-03-08T22:13:03.728Z,6.60
2018-03-08T22:15:31.979Z,6.60
2018-03-08T22:17:59.507Z,6.50
2018-03-08T22:20:26.985Z,6.50
2018-03-08T22:22:54.488Z,6.50
2018-03-08T22:25:22.864Z,6.50
2018-03-08T22:27:50.355Z,6.60
2018-03-08T22:30:17.836Z,6.60
2018-03-08T22:32:45.336Z,6.60
2018-03-08T22:35:12.857Z,6.60
2018-03-08T22:37:40.383Z,6.50
2018-03-08T22:42:40.882Z,6.40
2018-03-08T22:45:08.361Z,6.50
2018-03-08T22:47:35.908Z,6.40
2018-03-08T22:50:03.363Z,6.30
2018-03-08T22:52:30.843Z,6.20
2018-03-08T22:54:58.348Z,6.20
2018-03-08T22:57:25.824Z,6.20
2018-03-08T22:59:54.113Z,6.10
2018-03-08T23:02:27.283Z,6.10
2018-03-08T23:04:54.789Z,6.10
2018-03-08T23:07:22.285Z,6.10
2018-03-08T23:09:50.555Z,5.80
2018-03-08T23:12:18.035Z,5.80
2018-03-08T23:14:46.301Z,5.80
2018-03-08T23:17:13.793Z,5.70
2018-03-08T23:19:42.060Z,5.80
2018-03-08T23:22:09.536Z,5.80
2018-03-08T23:24:37.031Z,5.90
2018-03-08T23:27:05.276Z,5.80
2018-03-08T23:29:32.780Z,5.80
2018-03-08T23:32:01.029Z,5.90
2018-03-08T23:34:28.532Z,5.90
2018-03-08T23:36:56.784Z,5.70
2018-03-08T23:39:24.268Z,5.70
2018-03-08T23:41:51.767Z,5.70
2018-03-08T23:44:20.012Z,5.70
2018-03-08T23:46:47.519Z,5.70
2018-03-08T23:49:14.995Z,5.60
2018-03-08T23:51:43.267Z,5.60
2018-03-08T23:54:10.743Z,5.60
2018-03-08T23:56:38.240Z,5.60
2018-03-08T23:59:05.727Z,5.70
